Time;durP1;ratioP1;P1;durP2;ratioP2;P2;SDS_P1;SDS_P2;PMS_P1;PMS_P2;Temp;Humidity;BMP_temperature;BMP_pressure;BME280_temperature;BME280_humidity;BME280_pressure;Samples;Min_cycle;Max_cycle;Signal;HPM_P1;HPM_P2
2022/07/06 04:36:11;;;;;;;1.35;0.40;;;13.50;99.90;;;;;;6279832;22;20024;-92
2022/07/06 04:46:52;;;;;;;0.98;0.30;;;13.50;99.90;;;;;;6189537;22;20469;-92
2022/07/06 12:08:58;;;;;;;1.23;0.20;;;19.80;99.90;;;;;;6260500;22;20024;-91
2022/07/06 12:11:28;;;;;;;0.80;0.20;;;19.70;99.90;;;;;;6249097;22;20061;-89
2022/07/06 12:13:56;;;;;;;0.38;0.15;;;19.60;99.90;;;;;;6224885;22;20052;-89
2022/07/06 12:16:34;;;;;;;0.80;0.28;;;19.60;99.90;;;;;;6224743;22;20019;-94
2022/07/06 17:04:22;;;;;;;2.03;0.95;;;16.10;99.90;;;;;;6277020;22;20020;-92
2022/07/06 17:06:48;;;;;;;2.58;1.10;;;16.10;99.90;;;;;;6223176;23;20350;-93
2022/07/06 17:09:14;;;;;;;2.95;1.20;;;16.10;99.90;;;;;;6228571;22;20037;-91
2022/07/06 17:11:40;;;;;;;5.32;1.17;;;16.10;99.90;;;;;;6251554;22;20449;-92
2022/07/06 17:14:08;;;;;;;2.58;1.10;;;16.10;99.90;;;;;;6226631;22;20061;-94
2022/07/06 17:16:33;;;;;;;2.80;1.10;;;16.10;99.90;;;;;;6227465;22;20053;-93
2022/07/06 17:19:02;;;;;;;2.42;1.23;;;16.10;99.90;;;;;;6226492;22;20087;-93
2022/07/06 17:21:33;;;;;;;2.78;1.35;;;16.10;99.90;;;;;;6226762;22;20471;-93
2022/07/06 17:23:59;;;;;;;3.55;1.27;;;16.10;99.90;;;;;;6225935;22;20392;-92
2022/07/06 17:26:24;;;;;;;3.47;1.33;;;16.10;99.90;;;;;;6226596;22;20066;-91
2022/07/06 17:28:55;;;;;;;4.40;1.33;;;16.00;99.90;;;;;;6226491;22;20016;-92
2022/07/06 17:31:22;;;;;;;5.00;1.40;;;16.00;99.90;;;;;;6250503;22;20016;-90
2022/07/06 17:33:48;;;;;;;3.03;1.25;;;16.00;99.90;;;;;;6251066;22;20037;-95
2022/07/06 17:36:13;;;;;;;3.33;1.52;;;16.00;99.90;;;;;;6225557;22;20094;-92
2022/07/06 17:38:41;;;;;;;3.25;1.00;;;16.00;99.90;;;;;;6251188;22;20043;-91
2022/07/06 17:41:07;;;;;;;3.35;1.40;;;16.00;99.90;;;;;;6226147;22;20022;-93
2022/07/06 17:43:33;;;;;;;5.40;1.85;;;16.00;99.90;;;;;;6226290;22;20019;-90
2022/07/06 17:45:58;;;;;;;4.65;1.67;;;15.90;99.90;;;;;;6250342;22;20016;-90
2022/07/06 17:48:24;;;;;;;3.72;1.52;;;15.90;99.90;;;;;;6250549;22;20019;-91
2022/07/06 17:50:50;;;;;;;2.90;1.40;;;16.00;99.90;;;;;;6225731;22;20043;-91
2022/07/06 17:53:15;;;;;;;4.35;1.42;;;15.90;99.90;;;;;;6225551;22;20051;-92
2022/07/06 17:55:43;;;;;;;3.20;1.55;;;15.90;99.90;;;;;;6225321;22;20015;-92
2022/07/06 17:58:09;;;;;;;3.53;1.70;;;16.00;99.90;;;;;;6225826;22;20031;-91
2022/07/06 18:03:21;;;;;;;4.82;1.77;;;16.00;99.90;;;;;;6245616;22;20028;-90
2022/07/06 18:05:49;;;;;;;5.55;1.95;;;15.90;99.90;;;;;;6195017;23;20102;-90
2022/07/06 18:08:15;;;;;;;3.95;1.67;;;15.90;99.90;;;;;;6194898;23;20094;-92
2022/07/06 18:10:41;;;;;;;4.65;2.22;;;15.90;99.90;;;;;;6194629;23;20113;-89
2022/07/06 18:13:07;;;;;;;4.65;2.50;;;15.90;99.90;;;;;;6194814;23;20016;-92
2022/07/06 18:15:33;;;;;;;5.50;2.38;;;15.90;99.90;;;;;;6195006;23;20099;-91
2022/07/06 18:48:58;;;;;;;7.60;2.70;;;15.90;99.90;;;;;;6244817;23;20027;-89
2022/07/06 18:51:24;;;;;;;5.65;2.45;;;16.00;99.90;;;;;;6220180;23;20020;-93
2022/07/06 18:53:50;;;;;;;5.65;3.13;;;15.90;99.90;;;;;;6220231;23;20023;-91
2022/07/06 18:56:15;;;;;;;4.70;2.40;;;15.90;99.90;;;;;;6194609;23;20017;-89
2022/07/06 18:58:52;;;;;;;;;;;;;;;;;;;;;
2022/07/06 19:01:21;;;;;;;;;;;16.00;99.90;;;;;;6220483;23;20078;-94
2022/07/06 19:03:56;;;;;;;4.55;2.20;;;16.00;99.90;;;;;;6195189;23;19915;-93
2022/07/06 19:06:22;;;;;;;3.78;1.75;;;16.00;99.90;;;;;;6194661;23;20095;-91
2022/07/06 19:09:29;;;;;;;;;;;;;;;;;;;;;
2022/07/06 19:12:20;;;;;;;5.65;2.30;;;16.00;99.90;;;;;;6211939;23;20079;-92
2022/07/06 19:14:49;;;;;;;4.43;1.90;;;16.00;99.90;;;;;;6200184;23;20027;-91
2022/07/06 19:17:16;;;;;;;3.33;1.58;;;16.10;99.90;;;;;;6207982;23;20019;-91
2022/07/06 19:19:44;;;;;;;4.60;2.28;;;16.10;99.90;;;;;;6213334;23;20020;-93
2022/07/06 19:22:43;;;;;;;3.42;1.58;;;16.10;99.90;;;;;;6206810;23;20035;-92
2022/07/06 19:25:24;;;;;;;3.58;1.60;;;16.10;99.90;;;;;;6197546;23;20030;-96
2022/07/06 19:33:19;;;;;;;3.88;1.70;;;16.20;99.90;;;;;;6297266;22;20020;-91
2022/07/06 19:35:47;;;;;;;3.65;1.40;;;16.10;99.90;;;;;;6236064;22;20024;-95
2022/07/06 19:38:13;;;;;;;4.78;1.73;;;16.20;99.90;;;;;;6257349;22;20023;-96
2022/07/06 19:40:40;;;;;;;3.47;1.40;;;16.20;99.90;;;;;;6234912;22;20444;-91
2022/07/06 19:43:05;;;;;;;;;;;16.20;99.90;;;;;;6236574;22;20050;-92
2022/07/06 19:45:32;;;;;;;4.10;1.95;;;16.20;99.90;;;;;;6231991;22;19915;-94
2022/07/06 19:47:58;;;;;;;4.68;1.90;;;16.20;99.90;;;;;;6230987;22;20016;-94
2022/07/06 19:50:29;;;;;;;4.05;1.80;;;16.20;99.90;;;;;;6233814;22;20106;-95
2022/07/06 19:52:55;;;;;;;4.05;1.80;;;16.20;99.90;;;;;;6229725;22;20015;-96
2022/07/06 19:55:27;;;;;;;4.68;1.83;;;16.20;99.90;;;;;;6259396;22;20015;-92
2022/07/06 19:57:52;;;;;;;4.50;1.85;;;16.30;99.90;;;;;;6237764;22;20086;-91
2022/07/06 20:00:24;;;;;;;4.53;1.92;;;16.30;99.90;;;;;;6264259;22;20016;-93
2022/07/06 20:02:55;;;;;;;4.60;2.00;;;16.30;99.90;;;;;;6238219;22;20067;-91
2022/07/06 20:08:06;;;;;;;4.43;1.95;;;16.30;99.90;;;;;;6235913;22;20020;-94
2022/07/06 20:10:33;;;;;;;5.05;2.50;;;16.30;99.90;;;;;;6192327;23;20026;-92
2022/07/06 20:13:21;;;;;;;5.82;2.38;;;16.30;99.90;;;;;;6194792;23;20062;-96
2022/07/06 20:15:57;;;;;;;4.88;2.47;;;16.30;99.90;;;;;;6200830;23;20020;-95
